Time;durP1;ratioP1;P1;durP2;ratioP2;P2;SDS_P1;SDS_P2;PMS_P1;PMS_P2;Temp;Humidity;BMP_temperature;BMP_pressure;BME280_temperature;BME280_humidity;BME280_pressure;Samples;Min_cycle;Max_cycle;Signal;HPM_P1;HPM_P2
2021/01/08 00:01:46;;;;;;;22.50;13.63;;;-0.80;96.20;;;;;;5075567;28;20028;-83
2021/01/08 00:04:12;;;;;;;22.50;13.43;;;-0.90;96.30;;;;;;5075770;28;20028;-82
2021/01/08 00:06:38;;;;;;;22.10;14.63;;;-0.80;96.20;;;;;;5075680;28;20036;-84
2021/01/08 00:09:04;;;;;;;19.60;13.32;;;-0.70;96.30;;;;;;5076768;28;20432;-83
2021/01/08 00:11:34;;;;;;;20.40;12.52;;;-0.80;96.30;;;;;;5075644;28;20460;-83
2021/01/08 00:14:02;;;;;;;23.02;13.50;;;-0.80;96.20;;;;;;5075303;28;20055;-85
2021/01/08 00:16:31;;;;;;;21.27;13.75;;;-0.80;96.40;;;;;;5075934;28;20028;-82
2021/01/08 00:18:57;;;;;;;21.60;13.52;;;-0.80;96.20;;;;;;5075126;28;20028;-83
2021/01/08 00:21:22;;;;;;;19.52;13.20;;;-0.70;96.10;;;;;;5075357;28;20059;-82
2021/01/08 00:23:48;;;;;;;21.98;14.35;;;-0.70;96.20;;;;;;5075336;28;20058;-85
2021/01/08 00:26:21;;;;;;;20.30;12.73;;;-0.60;96.30;;;;;;5076272;28;20475;-84
2021/01/08 00:28:47;;;;;;;22.08;13.50;;;-0.70;96.10;;;;;;5075741;28;20444;-83
2021/01/08 00:31:13;;;;;;;19.90;12.80;;;-0.60;96.30;;;;;;5076316;28;20048;-84
2021/01/08 00:33:39;;;;;;;25.17;15.65;;;-0.70;96.30;;;;;;5075497;28;20024;-82
2021/01/08 00:36:05;;;;;;;25.17;14.45;;;-0.70;96.30;;;;;;5074767;28;20033;-83
2021/01/08 00:38:30;;;;;;;23.15;14.80;;;-0.70;96.30;;;;;;5075040;28;20025;-84
2021/01/08 00:40:56;;;;;;;26.05;14.88;;;-0.70;96.40;;;;;;5058402;28;20028;-83
2021/01/08 00:43:21;;;;;;;28.70;16.63;;;-0.70;96.50;;;;;;5075081;28;20029;-85
2021/01/08 00:45:49;;;;;;;27.73;16.40;;;-0.70;96.60;;;;;;5075757;28;20032;-84
2021/01/08 00:48:14;;;;;;;26.30;16.10;;;-0.60;96.40;;;;;;5075218;28;20048;-83
2021/01/08 00:50:41;;;;;;;25.88;15.10;;;-0.60;96.40;;;;;;5076915;28;20035;-84
2021/01/08 00:53:07;;;;;;;24.95;15.45;;;-0.60;96.30;;;;;;5075766;28;20025;-84
2021/01/08 00:55:32;;;;;;;27.48;15.55;;;-0.60;96.30;;;;;;5075470;28;20464;-82
2021/01/08 00:57:58;;;;;;;26.35;15.38;;;-0.60;96.60;;;;;;5075691;28;20037;-83
2021/01/08 01:00:24;;;;;;;27.98;15.57;;;-0.60;96.90;;;;;;5074602;28;20017;-83
2021/01/08 01:02:49;;;;;;;31.58;16.13;;;-0.60;96.60;;;;;;5074764;28;20025;-82
2021/01/08 01:05:16;;;;;;;22.85;14.63;;;-0.60;96.50;;;;;;5075778;28;20111;-83
2021/01/08 01:07:42;;;;;;;27.23;16.08;;;-0.60;96.30;;;;;;5075485;28;20037;-83
2021/01/08 01:10:10;;;;;;;25.20;14.45;;;-0.60;96.40;;;;;;5058177;28;20027;-83
2021/01/08 01:12:36;;;;;;;26.98;15.07;;;-0.60;96.30;;;;;;5076459;28;20025;-82
2021/01/08 01:15:04;;;;;;;26.45;16.33;;;-0.60;96.50;;;;;;5075378;28;20123;-83
2021/01/08 01:17:30;;;;;;;26.45;16.60;;;-0.60;96.30;;;;;;5075304;28;20025;-83
2021/01/08 01:19:55;;;;;;;29.33;17.42;;;-0.60;96.50;;;;;;5076047;28;20078;-84
2021/01/08 01:22:21;;;;;;;26.50;16.23;;;-0.60;96.70;;;;;;5075271;28;20025;-83
2021/01/08 01:24:46;;;;;;;26.35;14.40;;;-0.50;96.60;;;;;;5074766;28;20124;-83
2021/01/08 01:27:12;;;;;;;24.13;14.32;;;-0.60;96.70;;;;;;5075654;28;20025;-84
2021/01/08 01:29:38;;;;;;;21.65;13.70;;;-0.50;96.50;;;;;;5075873;28;20052;-84
2021/01/08 01:32:03;;;;;;;19.55;12.32;;;-0.60;96.60;;;;;;5075031;28;20020;-84
2021/01/08 01:34:29;;;;;;;19.75;11.52;;;-0.60;96.80;;;;;;5078201;28;20356;-84
2021/01/08 01:36:55;;;;;;;17.92;10.57;;;-0.60;96.30;;;;;;5078874;28;20127;-83
2021/01/08 01:39:20;;;;;;;18.83;11.95;;;-0.60;96.30;;;;;;5079192;28;20025;-85
2021/01/08 01:41:46;;;;;;;19.60;11.55;;;-0.60;96.30;;;;;;5079367;28;20412;-83
2021/01/08 01:44:12;;;;;;;16.88;10.73;;;-0.50;96.30;;;;;;5078929;28;20021;-84
2021/01/08 01:46:38;;;;;;;20.13;12.55;;;-0.50;96.20;;;;;;5078254;28;20037;-85
2021/01/08 01:49:04;;;;;;;20.20;12.43;;;-0.50;96.10;;;;;;5079857;28;20040;-82
2021/01/08 01:51:31;;;;;;;20.77;13.60;;;-0.50;96.50;;;;;;5078409;28;20088;-84
2021/01/08 01:53:57;;;;;;;22.25;13.82;;;-0.60;96.20;;;;;;5078598;28;20438;-84
2021/01/08 01:56:22;;;;;;;25.08;15.30;;;-0.50;96.40;;;;;;5078433;28;20029;-85
2021/01/08 01:58:48;;;;;;;28.85;16.92;;;-0.50;96.50;;;;;;5078585;28;20096;-85
2021/01/08 02:01:14;;;;;;;30.40;17.70;;;-0.50;96.60;;;;;;5078322;28;20039;-84
2021/01/08 02:03:49;;;;;;;31.23;17.83;;;-0.40;96.70;;;;;;5079311;28;20106;-84
2021/01/08 02:06:19;;;;;;;27.80;16.35;;;-0.50;96.80;;;;;;5079345;28;20127;-84
2021/01/08 02:08:51;;;;;;;29.20;16.35;;;-0.50;96.70;;;;;;5079059;28;20040;-84
2021/01/08 02:11:26;;;;;;;29.75;17.42;;;-0.50;96.90;;;;;;5079289;28;20054;-84
2021/01/08 02:14:00;;;;;;;27.65;16.67;;;-0.50;96.80;;;;;;5080021;28;20070;-85
2021/01/08 02:16:28;;;;;;;29.33;17.52;;;-0.50;96.90;;;;;;5078670;28;20024;-83
2021/01/08 02:18:54;;;;;;;26.75;16.50;;;-0.50;96.70;;;;;;5077999;28;20036;-82
2021/01/08 02:21:30;;;;;;;27.52;16.50;;;-0.50;96.70;;;;;;5077556;28;20052;-83
2021/01/08 02:24:21;;;;;;;27.13;15.55;;;-0.50;96.80;;;;;;5076850;28;20040;-83
2021/01/08 02:26:48;;;;;;;28.20;16.38;;;-0.50;96.80;;;;;;5076088;28;20043;-82
2021/01/08 02:29:14;;;;;;;25.85;16.52;;;-0.50;96.80;;;;;;5076639;28;20028;-83
2021/01/08 02:31:40;;;;;;;24.13;15.82;;;-0.50;96.70;;;;;;5077320;28;20126;-82
2021/01/08 02:34:06;;;;;;;28.10;16.08;;;-0.50;96.60;;;;;;5076998;28;20047;-83
2021/01/08 02:36:38;;;;;;;28.30;15.88;;;-0.50;96.50;;;;;;5077728;28;20024;-83
2021/01/08 02:39:04;;;;;;;25.17;15.15;;;-0.50;96.60;;;;;;5076883;28;20025;-83
2021/01/08 02:41:30;;;;;;;22.70;15.15;;;-0.50;96.60;;;;;;5076312;28;20092;-84
2021/01/08 02:43:57;;;;;;;25.02;16.35;;;-0.50;96.50;;;;;;5076467;28;20059;-85
2021/01/08 02:46:23;;;;;;;25.88;16.00;;;-0.60;96.80;;;;;;5075945;28;20020;-84
2021/01/08 02:48:48;;;;;;;24.17;16.13;;;-0.50;96.90;;;;;;5076163;28;20194;-83
2021/01/08 02:51:14;;;;;;;22.60;15.50;;;-0.50;96.90;;;;;;5076741;28;20024;-83
2021/01/08 02:53:42;;;;;;;26.33;15.02;;;-0.50;96.80;;;;;;5076555;28;20021;-83
2021/01/08 02:56:13;;;;;;;29.48;16.45;;;-0.60;96.60;;;;;;5076907;28;20075;-84
2021/01/08 02:58:40;;;;;;;27.95;16.65;;;-0.60;96.80;;;;;;5076970;28;20052;-84
2021/01/08 03:01:07;;;;;;;25.73;16.58;;;-0.60;96.90;;;;;;5078271;28;20059;-83
2021/01/08 03:03:33;;;;;;;31.05;18.10;;;-0.60;97.10;;;;;;5076793;28;20119;-85
2021/01/08 03:06:00;;;;;;;27.63;16.17;;;-0.60;97.00;;;;;;5076920;28;20029;-83
2021/01/08 03:08:28;;;;;;;27.85;16.27;;;-0.50;97.00;;;;;;5075907;28;20098;-83
2021/01/08 03:10:55;;;;;;;27.83;16.02;;;-0.60;97.00;;;;;;5076244;28;20025;-83
2021/01/08 03:13:23;;;;;;;25.65;16.05;;;-0.50;97.00;;;;;;5076683;28;20123;-85
2021/01/08 03:15:49;;;;;;;27.35;15.25;;;-0.50;96.90;;;;;;5076057;28;20028;-84
2021/01/08 03:18:15;;;;;;;26.35;15.65;;;-0.50;96.80;;;;;;5075648;28;20367;-82
2021/01/08 03:20:40;;;;;;;24.00;14.38;;;-0.50;97.10;;;;;;5075222;28;20035;-83
2021/01/08 03:23:07;;;;;;;23.60;13.98;;;-0.50;97.00;;;;;;5075554;28;20035;-85
2021/01/08 03:25:34;;;;;;;22.60;14.82;;;-0.50;96.90;;;;;;5075718;28;20116;-83
2021/01/08 03:27:59;;;;;;;22.35;15.10;;;-0.50;96.90;;;;;;5075825;28;20046;-84
2021/01/08 03:30:25;;;;;;;23.83;15.27;;;-0.50;96.70;;;;;;5076119;28;20028;-84
2021/01/08 03:32:51;;;;;;;20.85;13.43;;;-0.50;96.50;;;;;;5075221;28;20021;-83
2021/01/08 03:35:17;;;;;;;23.20;13.75;;;-0.50;96.50;;;;;;5075439;28;20021;-83
2021/01/08 03:37:43;;;;;;;18.95;13.18;;;-0.50;96.50;;;;;;5075679;28;20035;-83
2021/01/08 03:40:09;;;;;;;23.65;14.77;;;-0.60;96.70;;;;;;5075351;28;20108;-84
2021/01/08 03:42:35;;;;;;;21.83;14.43;;;-0.50;96.60;;;;;;5076908;28;20059;-83
2021/01/08 03:45:01;;;;;;;22.52;14.05;;;-0.50;96.50;;;;;;5076329;28;20024;-84
2021/01/08 03:47:27;;;;;;;21.35;15.05;;;-0.50;96.60;;;;;;5075322;28;20044;-82
2021/01/08 03:49:52;;;;;;;23.45;14.30;;;-0.60;96.60;;;;;;5075424;28;20121;-84
2021/01/08 03:52:18;;;;;;;21.48;14.63;;;-0.60;96.80;;;;;;5075545;28;20383;-83
2021/01/08 03:54:44;;;;;;;23.58;17.65;;;-0.50;96.90;;;;;;5075848;28;20024;-82
2021/01/08 03:57:09;;;;;;;22.50;16.67;;;-0.60;96.80;;;;;;5075372;28;20031;-82
2021/01/08 03:59:35;;;;;;;22.15;14.48;;;-0.60;96.60;;;;;;5076309;28;20472;-82
2021/01/08 04:02:01;;;;;;;23.60;17.88;;;-0.60;96.60;;;;;;5075614;28;20069;-83
2021/01/08 04:04:26;;;;;;;21.70;15.40;;;-0.70;96.80;;;;;;5075076;28;20036;-83
2021/01/08 04:06:53;;;;;;;25.08;17.55;;;-0.70;97.00;;;;;;5075838;28;20039;-82
2021/01/08 04:09:19;;;;;;;21.50;14.68;;;-0.60;97.00;;;;;;5075716;28;20048;-84
2021/01/08 04:11:46;;;;;;;20.73;14.73;;;-0.50;97.00;;;;;;5074832;28;20056;-83
2021/01/08 04:14:12;;;;;;;22.02;14.60;;;-0.60;96.80;;;;;;5075214;28;20027;-83
2021/01/08 04:16:44;;;;;;;20.67;13.52;;;-0.70;97.00;;;;;;5075330;28;20115;-82
2021/01/08 04:19:10;;;;;;;19.90;13.52;;;-0.70;96.90;;;;;;5075392;28;20028;-85
2021/01/08 04:21:36;;;;;;;17.40;12.90;;;-0.70;96.90;;;;;;5074935;28;20025;-83
2021/01/08 04:24:03;;;;;;;20.85;14.30;;;-0.70;96.80;;;;;;5074469;28;20028;-84
2021/01/08 04:26:29;;;;;;;18.92;15.15;;;-0.70;97.00;;;;;;5076492;28;20035;-84
2021/01/08 04:28:55;;;;;;;19.70;14.07;;;-0.60;96.80;;;;;;5074292;28;20029;-83
2021/01/08 04:31:21;;;;;;;19.15;13.55;;;-0.70;97.00;;;;;;5074322;28;20028;-83
2021/01/08 04:33:47;;;;;;;20.00;13.57;;;-0.70;96.70;;;;;;5074697;28;20051;-85
2021/01/08 04:36:13;;;;;;;20.67;15.85;;;-0.70;96.60;;;;;;5074661;28;20167;-82
2021/01/08 04:38:40;;;;;;;20.52;13.52;;;-0.70;96.70;;;;;;5074560;28;20490;-83
2021/01/08 04:41:06;;;;;;;18.60;13.10;;;-0.70;96.60;;;;;;5074292;28;20033;-83
2021/01/08 04:43:34;;;;;;;19.05;14.18;;;-0.60;96.70;;;;;;5074423;28;20039;-85
2021/01/08 04:46:18;;;;;;;18.20;12.13;;;-0.60;96.40;;;;;;5074313;28;20033;-84
2021/01/08 04:48:44;;;;;;;16.70;12.85;;;-0.60;96.20;;;;;;5074665;28;20376;-84
2021/01/08 04:51:12;;;;;;;18.02;13.18;;;-0.60;96.20;;;;;;5074356;28;20032;-84
2021/01/08 04:53:38;;;;;;;17.08;11.73;;;-0.60;96.20;;;;;;5074164;28;20388;-82
2021/01/08 04:56:10;;;;;;;18.27;13.45;;;-0.60;96.20;;;;;;5074648;28;20567;-83
2021/01/08 04:58:36;;;;;;;18.02;13.40;;;-0.60;96.20;;;;;;5075453;28;20029;-83
2021/01/08 05:01:03;;;;;;;20.58;13.43;;;-0.70;96.40;;;;;;5074686;28;20456;-84
2021/01/08 05:03:29;;;;;;;19.48;14.07;;;-0.70;96.50;;;;;;5074379;28;20051;-84
2021/01/08 05:05:55;;;;;;;19.30;13.10;;;-0.60;96.60;;;;;;5074167;28;20123;-83
2021/01/08 05:08:22;;;;;;;22.60;14.02;;;-0.70;96.60;;;;;;5074271;28;20509;-83
2021/01/08 05:10:48;;;;;;;18.15;13.23;;;-0.60;96.70;;;;;;5078999;28;20490;-84
2021/01/08 05:13:14;;;;;;;15.90;11.65;;;-0.60;96.70;;;;;;5079840;28;20427;-82
2021/01/08 05:15:40;;;;;;;17.00;12.13;;;-0.60;96.80;;;;;;5078792;28;20074;-83
2021/01/08 05:18:07;;;;;;;16.75;12.23;;;-0.60;96.50;;;;;;5079527;28;20047;-82
2021/01/08 05:20:32;;;;;;;16.55;12.40;;;-0.60;96.60;;;;;;5079492;28;20036;-86
2021/01/08 05:23:00;;;;;;;16.00;11.98;;;-0.60;96.70;;;;;;5079106;28;20086;-83
2021/01/08 05:25:25;;;;;;;17.83;12.23;;;-0.60;96.60;;;;;;5078679;28;20028;-85
2021/01/08 05:27:51;;;;;;;15.43;11.18;;;-0.60;96.70;;;;;;5078692;28;20085;-83
2021/01/08 05:30:25;;;;;;;15.75;11.82;;;-0.50;96.50;;;;;;5079029;28;20063;-83
2021/01/08 05:33:04;;;;;;;15.68;11.90;;;-0.60;96.50;;;;;;5079031;28;20029;-83
2021/01/08 05:35:32;;;;;;;14.55;10.80;;;-0.60;96.50;;;;;;5080310;28;20543;-83
2021/01/08 05:38:06;;;;;;;16.35;11.88;;;-0.60;96.60;;;;;;5079085;28;20077;-82
2021/01/08 05:40:33;;;;;;;17.33;10.80;;;-0.60;96.80;;;;;;5079745;28;20492;-83
2021/01/08 05:43:01;;;;;;;13.90;10.98;;;-0.60;96.80;;;;;;5079224;28;20031;-85
2021/01/08 05:45:29;;;;;;;15.13;11.80;;;-0.60;96.80;;;;;;5079441;28;20489;-85
2021/01/08 05:47:58;;;;;;;14.38;10.70;;;-0.60;96.60;;;;;;5078666;28;20049;-84
2021/01/08 05:50:25;;;;;;;18.25;13.18;;;-0.60;96.50;;;;;;5062326;28;20067;-84
2021/01/08 05:53:05;;;;;;;25.23;18.48;;;-0.60;96.60;;;;;;5079583;28;20089;-84
2021/01/08 05:55:36;;;;;;;22.13;15.70;;;-0.50;96.70;;;;;;5078692;28;20056;-84
2021/01/08 05:58:23;;;;;;;26.20;18.58;;;-0.60;96.40;;;;;;5079183;28;20031;-83
2021/01/08 06:01:00;;;;;;;16.10;12.13;;;-0.50;96.40;;;;;;5080751;28;20017;-82
2021/01/08 06:03:27;;;;;;;16.67;12.45;;;-0.50;96.40;;;;;;5080764;28;20025;-84
2021/01/08 06:05:55;;;;;;;17.52;12.52;;;-0.60;96.30;;;;;;5080493;28;20468;-84
2021/01/08 06:08:28;;;;;;;18.52;13.27;;;-0.50;96.30;;;;;;5080253;28;20119;-82
2021/01/08 06:10:56;;;;;;;19.25;13.10;;;-0.50;96.60;;;;;;5085144;28;20059;-85
2021/01/08 06:13:33;;;;;;;16.88;11.90;;;-0.60;96.50;;;;;;5081465;28;20028;-83
2021/01/08 06:16:02;;;;;;;14.30;10.85;;;0.10;99.90;;;;;;5077667;28;20044;-85
2021/01/08 06:18:28;;;;;;;20.17;14.52;;;0.10;99.90;;;;;;5078509;28;20060;-84
2021/01/08 06:21:03;;;;;;;20.45;15.05;;;-0.10;97.80;;;;;;5078171;28;20020;-83
2021/01/08 06:23:48;;;;;;;19.38;13.50;;;-0.30;96.50;;;;;;5078524;28;20020;-85
2021/01/08 06:26:15;;;;;;;19.02;12.57;;;-0.40;96.40;;;;;;5078196;28;20062;-84
2021/01/08 06:28:50;;;;;;;17.27;12.23;;;-0.50;96.60;;;;;;5078457;28;20059;-85
2021/01/08 06:31:24;;;;;;;17.58;13.00;;;-0.60;96.70;;;;;;5078055;28;20032;-83
2021/01/08 06:34:00;;;;;;;16.70;12.65;;;-0.60;97.00;;;;;;5079040;28;20394;-82
2021/01/08 06:36:31;;;;;;;16.70;12.07;;;-0.60;97.20;;;;;;5082061;28;20028;-85
2021/01/08 06:39:04;;;;;;;15.05;11.18;;;-0.70;97.20;;;;;;5082937;28;20017;-82
2021/01/08 06:41:30;;;;;;;16.80;12.18;;;-0.70;97.20;;;;;;5082500;28;20039;-82
2021/01/08 06:44:02;;;;;;;16.65;11.63;;;-0.80;97.10;;;;;;5083806;28;20017;-82
2021/01/08 06:46:34;;;;;;;17.88;12.13;;;-0.80;97.20;;;;;;5083754;28;20028;-82
2021/01/08 06:49:11;;;;;;;16.10;11.70;;;-0.80;97.20;;;;;;5079987;28;20043;-83
2021/01/08 06:51:44;;;;;;;20.30;12.95;;;-0.80;97.10;;;;;;5081583;28;20059;-82
2021/01/08 06:54:14;;;;;;;34.30;24.20;;;-0.80;97.30;;;;;;5077723;28;20086;-82
2021/01/08 06:56:44;;;;;;;31.65;22.15;;;-0.80;97.40;;;;;;5078045;28;20090;-81
2021/01/08 06:59:12;;;;;;;25.55;18.33;;;-0.90;97.40;;;;;;5079071;28;20028;-84
2021/01/08 07:01:52;;;;;;;23.05;17.33;;;-0.90;97.40;;;;;;5079560;28;20029;-83
2021/01/08 07:04:22;;;;;;;24.30;15.55;;;-0.90;97.50;;;;;;5078516;28;20048;-84
2021/01/08 07:06:49;;;;;;;22.52;15.95;;;-0.80;97.50;;;;;;5061492;28;20042;-83
2021/01/08 07:09:14;;;;;;;25.30;16.25;;;-0.90;97.60;;;;;;5075554;28;20449;-82
2021/01/08 07:11:40;;;;;;;19.48;14.77;;;-0.90;97.60;;;;;;5073805;28;20128;-84
2021/01/08 07:14:14;;;;;;;18.85;13.75;;;-0.80;97.60;;;;;;5075433;28;20032;-82
2021/01/08 07:16:45;;;;;;;17.83;12.77;;;-0.80;97.50;;;;;;5075624;28;20032;-83
2021/01/08 07:19:14;;;;;;;20.85;13.98;;;-0.80;97.50;;;;;;5075792;28;20021;-85
2021/01/08 07:21:47;;;;;;;18.70;13.80;;;-0.90;97.50;;;;;;5076359;28;20480;-82
2021/01/08 07:24:14;;;;;;;19.75;14.70;;;-0.70;97.30;;;;;;5059380;28;20029;-82
2021/01/08 07:26:40;;;;;;;23.25;16.52;;;-0.70;97.40;;;;;;5074586;28;20021;-81
2021/01/08 07:29:07;;;;;;;24.17;17.63;;;-0.70;97.30;;;;;;5074059;28;20494;-82
2021/01/08 07:31:36;;;;;;;20.80;15.52;;;-0.70;97.30;;;;;;5073457;28;20050;-80
2021/01/08 07:34:07;;;;;;;25.05;18.70;;;-0.70;97.40;;;;;;5073857;28;20128;-81
2021/01/08 07:36:33;;;;;;;29.77;20.95;;;-0.70;97.50;;;;;;5074119;28;20107;-80
2021/01/08 07:39:00;;;;;;;21.40;15.27;;;-0.60;97.50;;;;;;5073740;28;20132;-80
2021/01/08 07:41:40;;;;;;;20.60;13.00;;;-0.60;97.50;;;;;;5073689;28;20025;-80
2021/01/08 07:44:31;;;;;;;18.02;14.23;;;-0.60;97.50;;;;;;5074526;28;20027;-81
2021/01/08 07:46:57;;;;;;;17.05;12.48;;;-0.60;97.70;;;;;;5057013;28;20063;-82
2021/01/08 07:49:27;;;;;;;16.85;12.73;;;-0.60;97.50;;;;;;5073181;28;20033;-81
2021/01/08 07:51:54;;;;;;;20.10;15.00;;;-0.50;97.50;;;;;;5073591;28;20056;-80
2021/01/08 07:54:53;;;;;;;15.90;11.93;;;-0.50;97.50;;;;;;5073422;28;20043;-81
2021/01/08 07:57:19;;;;;;;17.33;13.30;;;-0.50;97.20;;;;;;5073332;28;20021;-81
2021/01/08 07:59:44;;;;;;;17.60;13.25;;;-0.40;97.00;;;;;;5073141;28;20485;-81
2021/01/08 08:02:10;;;;;;;17.00;13.65;;;-0.40;97.10;;;;;;5073379;28;20483;-81
2021/01/08 08:04:37;;;;;;;19.58;15.57;;;-0.40;96.90;;;;;;5073585;28;20107;-81
2021/01/08 08:07:03;;;;;;;15.20;11.80;;;-0.30;96.80;;;;;;5073736;28;20032;-81
2021/01/08 08:09:29;;;;;;;20.08;15.15;;;-0.30;96.70;;;;;;5073535;28;20040;-81
2021/01/08 08:11:55;;;;;;;23.65;14.68;;;-0.30;97.00;;;;;;5073231;28;20017;-82
2021/01/08 08:14:24;;;;;;;68.68;41.88;;;-0.30;96.80;;;;;;5073568;28;20020;-81
2021/01/08 08:16:50;;;;;;;15.77;11.75;;;-0.20;96.50;;;;;;5073162;28;20027;-81
2021/01/08 08:19:16;;;;;;;20.00;14.27;;;-0.20;96.60;;;;;;5073361;28;20020;-84
2021/01/08 08:21:47;;;;;;;18.73;12.88;;;-0.10;96.80;;;;;;5074078;28;20082;-84
2021/01/08 08:24:16;;;;;;;22.42;15.15;;;-0.10;96.20;;;;;;5074392;28;20033;-82
2021/01/08 08:26:42;;;;;;;18.98;13.95;;;0.00;96.20;;;;;;5074547;28;20162;-82
2021/01/08 08:29:16;;;;;;;12.52;9.25;;;2.60;99.90;;;;;;5074088;28;20020;-84
2021/01/08 08:31:46;;;;;;;12.48;9.23;;;3.20;89.80;;;;;;5071838;28;20028;-82
2021/01/08 08:34:14;;;;;;;14.50;11.25;;;2.70;90.00;;;;;;5072120;28;20065;-82
2021/01/08 08:36:40;;;;;;;13.88;11.35;;;2.00;90.70;;;;;;5071900;28;20024;-82
2021/01/08 08:39:07;;;;;;;14.85;11.30;;;1.60;92.10;;;;;;5072147;28;20123;-83
2021/01/08 08:41:35;;;;;;;19.83;11.82;;;1.20;92.90;;;;;;5071852;28;20490;-81
2021/01/08 08:44:20;;;;;;;16.55;12.18;;;1.00;93.90;;;;;;5073013;28;20054;-83
2021/01/08 08:46:49;;;;;;;16.13;10.88;;;0.80;93.90;;;;;;5071929;28;20037;-82
2021/01/08 08:49:25;;;;;;;39.00;21.42;;;0.70;94.30;;;;;;5071888;28;20476;-82
2021/01/08 08:51:52;;;;;;;17.35;11.02;;;0.70;94.20;;;;;;5072236;28;20120;-82
2021/01/08 08:54:18;;;;;;;17.42;13.38;;;0.70;94.40;;;;;;5071735;28;20025;-82
2021/01/08 08:56:51;;;;;;;22.98;16.50;;;0.60;94.20;;;;;;5071829;28;20112;-82
2021/01/08 08:59:39;;;;;;;26.85;19.92;;;0.60;94.40;;;;;;5071855;28;20468;-84
2021/01/08 09:02:27;;;;;;;15.57;11.77;;;0.60;94.30;;;;;;5072383;28;20028;-83
2021/01/08 09:05:00;;;;;;;15.45;11.88;;;0.60;94.40;;;;;;5071960;28;20025;-82
2021/01/08 09:07:35;;;;;;;15.60;12.40;;;0.60;94.70;;;;;;5072039;28;20443;-82
2021/01/08 09:10:05;;;;;;;14.43;11.37;;;0.60;95.00;;;;;;5072004;28;20064;-85
2021/01/08 09:13:03;;;;;;;16.23;12.15;;;0.60;94.80;;;;;;5071862;28;20521;-81
2021/01/08 09:16:00;;;;;;;15.88;12.25;;;0.70;94.80;;;;;;5068274;28;20032;-81
2021/01/08 09:18:52;;;;;;;13.43;10.50;;;0.70;94.70;;;;;;5073194;28;20024;-82
2021/01/08 09:21:32;;;;;;;12.32;9.63;;;0.80;95.00;;;;;;5072941;28;20075;-81
2021/01/08 09:24:03;;;;;;;12.32;9.40;;;0.90;94.50;;;;;;5071474;28;20016;-82
2021/01/08 09:26:30;;;;;;;13.60;10.43;;;0.90;94.20;;;;;;5071410;28;20028;-81
2021/01/08 09:28:57;;;;;;;13.68;10.25;;;0.90;93.90;;;;;;5071456;28;20036;-81
2021/01/08 09:31:43;;;;;;;13.68;9.45;;;1.00;93.30;;;;;;5071571;28;20025;-82
2021/01/08 09:34:10;;;;;;;13.40;10.25;;;1.00;93.40;;;;;;5071533;28;20024;-81
2021/01/08 09:36:40;;;;;;;15.80;9.95;;;1.00;93.90;;;;;;5071343;28;20482;-81
2021/01/08 09:39:10;;;;;;;14.40;10.43;;;1.00;93.40;;;;;;5071953;28;20031;-81
2021/01/08 09:41:38;;;;;;;18.40;12.70;;;1.00;93.30;;;;;;5071376;28;20111;-81
2021/01/08 09:44:06;;;;;;;34.22;22.95;;;1.10;93.80;;;;;;5071421;28;20467;-81
2021/01/08 09:46:48;;;;;;;17.70;13.07;;;1.10;93.20;;;;;;5071524;28;20074;-81
2021/01/08 09:49:14;;;;;;;16.35;13.43;;;1.10;93.40;;;;;;5071349;28;20041;-81
2021/01/08 09:51:40;;;;;;;14.18;10.50;;;1.00;93.30;;;;;;5071392;28;20086;-82
2021/01/08 09:54:06;;;;;;;16.90;10.93;;;1.10;93.40;;;;;;5071234;28;20060;-81
2021/01/08 09:56:31;;;;;;;14.00;10.50;;;1.10;94.00;;;;;;5074764;28;20063;-81
2021/01/08 09:59:14;;;;;;;13.32;10.18;;;1.20;93.10;;;;;;5075095;28;20020;-82
2021/01/08 10:01:56;;;;;;;12.70;9.77;;;1.20;93.00;;;;;;5058117;28;20057;-83
2021/01/08 10:04:30;;;;;;;16.35;12.30;;;1.30;92.70;;;;;;5075113;28;20052;-81
2021/01/08 10:07:16;;;;;;;15.43;11.70;;;1.30;92.80;;;;;;5074787;28;20024;-82
2021/01/08 10:09:51;;;;;;;14.07;10.48;;;1.50;92.80;;;;;;5073227;28;20028;-81
2021/01/08 10:12:17;;;;;;;15.43;10.23;;;1.60;92.60;;;;;;5075565;28;20071;-81
2021/01/08 10:14:43;;;;;;;12.88;9.82;;;1.60;92.30;;;;;;5075077;28;20463;-81
2021/01/08 10:17:13;;;;;;;13.02;10.48;;;1.60;92.50;;;;;;5076352;28;20032;-81
2021/01/08 10:19:40;;;;;;;17.20;11.30;;;1.60;92.80;;;;;;5075127;28;20046;-83
2021/01/08 10:22:06;;;;;;;80.88;48.50;;;1.60;92.60;;;;;;5075270;28;20031;-81
2021/01/08 10:24:32;;;;;;;20.08;13.57;;;1.70;92.90;;;;;;5075174;28;20025;-83
2021/01/08 10:26:58;;;;;;;17.02;12.45;;;1.70;92.60;;;;;;5076659;28;20456;-84
2021/01/08 10:29:34;;;;;;;13.57;11.35;;;1.70;92.90;;;;;;5077621;28;20107;-83
2021/01/08 10:32:12;;;;;;;14.45;11.23;;;1.60;92.70;;;;;;5075951;28;20021;-84
2021/01/08 10:34:43;;;;;;;15.40;12.00;;;1.60;93.60;;;;;;5075567;28;20521;-81
2021/01/08 10:37:16;;;;;;;17.02;13.27;;;1.60;93.50;;;;;;5074958;28;20020;-81
2021/01/08 10:39:44;;;;;;;16.10;11.40;;;1.70;93.50;;;;;;5076302;28;20047;-81
2021/01/08 10:42:10;;;;;;;17.77;14.60;;;1.70;93.30;;;;;;5075721;28;20025;-83
2021/01/08 10:44:39;;;;;;;20.10;15.27;;;1.70;93.20;;;;;;5076313;28;20364;-81
2021/01/08 10:47:06;;;;;;;15.98;12.05;;;1.80;93.40;;;;;;5075956;28;20040;-82
2021/01/08 10:49:33;;;;;;;19.75;16.25;;;1.80;93.10;;;;;;5076357;28;20056;-81
2021/01/08 10:51:59;;;;;;;16.45;11.57;;;1.80;93.20;;;;;;5075155;28;20100;-82
2021/01/08 10:54:25;;;;;;;18.27;12.50;;;1.90;92.90;;;;;;5075921;28;20086;-81
2021/01/08 10:56:51;;;;;;;15.63;12.02;;;1.90;93.00;;;;;;5074533;28;20024;-82
2021/01/08 10:59:16;;;;;;;17.38;13.70;;;1.90;92.30;;;;;;5074703;28;20066;-81
2021/01/08 11:01:44;;;;;;;13.98;11.27;;;1.90;92.20;;;;;;5074261;28;20020;-81
2021/01/08 11:04:10;;;;;;;15.85;10.80;;;2.00;91.80;;;;;;5075323;28;20367;-82
2021/01/08 11:06:39;;;;;;;16.05;11.70;;;2.00;92.00;;;;;;5074312;28;20406;-81
2021/01/08 11:09:15;;;;;;;13.55;11.00;;;2.10;92.40;;;;;;5074406;28;20089;-81
2021/01/08 11:11:41;;;;;;;33.50;23.25;;;2.20;92.50;;;;;;5074732;28;20016;-83
2021/01/08 11:14:07;;;;;;;20.13;16.33;;;2.20;91.90;;;;;;5074890;28;20025;-82
2021/01/08 11:16:33;;;;;;;17.42;12.93;;;2.20;91.70;;;;;;5074350;28;20028;-83
2021/01/08 11:18:58;;;;;;;14.60;11.07;;;2.30;91.70;;;;;;5074679;28;20029;-83
2021/01/08 11:21:24;;;;;;;14.00;10.93;;;2.30;91.40;;;;;;5074313;28;20021;-81
2021/01/08 11:23:50;;;;;;;17.83;11.65;;;2.40;91.60;;;;;;5078795;28;20111;-84
2021/01/08 11:26:27;;;;;;;17.30;11.80;;;2.40;91.20;;;;;;5062295;28;20027;-83
2021/01/08 11:28:53;;;;;;;17.50;12.15;;;2.30;92.00;;;;;;5061790;28;20037;-83
2021/01/08 11:31:21;;;;;;;15.57;11.57;;;2.40;91.90;;;;;;5082154;28;20053;-84
2021/01/08 11:33:46;;;;;;;15.05;11.63;;;2.50;90.90;;;;;;5075532;28;20021;-81
2021/01/08 11:36:17;;;;;;;22.13;14.63;;;2.60;90.80;;;;;;5074464;28;20031;-83
2021/01/08 11:38:43;;;;;;;16.00;12.35;;;2.70;90.60;;;;;;5074625;28;20021;-82
2021/01/08 11:41:10;;;;;;;15.20;11.85;;;2.80;90.70;;;;;;5057454;28;20028;-81
2021/01/08 11:43:35;;;;;;;17.02;12.30;;;2.80;90.40;;;;;;5075088;28;20032;-81
2021/01/08 11:46:01;;;;;;;13.48;10.63;;;2.80;90.80;;;;;;5074905;28;20021;-82
2021/01/08 11:48:27;;;;;;;13.90;10.82;;;2.80;90.70;;;;;;5074516;28;20052;-82
2021/01/08 11:50:53;;;;;;;25.98;16.55;;;2.60;90.80;;;;;;5058432;28;20431;-81
2021/01/08 11:53:18;;;;;;;14.05;11.60;;;2.70;90.80;;;;;;5076461;28;20028;-82
2021/01/08 11:55:44;;;;;;;17.83;13.15;;;2.80;90.60;;;;;;5077445;28;20071;-82
2021/01/08 11:58:10;;;;;;;20.48;13.52;;;2.80;90.60;;;;;;5075948;28;20459;-81
2021/01/08 12:00:36;;;;;;;16.17;11.48;;;2.80;91.50;;;;;;5075625;28;20426;-82
2021/01/08 12:03:02;;;;;;;12.50;9.60;;;2.90;91.30;;;;;;5076478;28;20117;-82
2021/01/08 12:05:27;;;;;;;14.02;11.38;;;3.60;94.60;;;;;;5079413;28;20115;-85
2021/01/08 12:07:53;;;;;;;13.10;10.38;;;3.90;88.20;;;;;;5077456;28;20119;-81
2021/01/08 12:10:19;;;;;;;27.70;24.85;;;3.60;89.70;;;;;;5081514;28;20115;-83
2021/01/08 12:12:49;;;;;;;21.00;16.83;;;3.40;88.80;;;;;;5066010;28;20123;-85
2021/01/08 12:15:16;;;;;;;13.88;11.25;;;3.30;88.90;;;;;;5080697;28;20029;-83
2021/01/08 12:17:46;;;;;;;18.40;12.55;;;3.10;89.90;;;;;;5079594;28;20021;-82
2021/01/08 12:20:13;;;;;;;19.40;16.40;;;3.00;90.40;;;;;;5082356;28;20032;-83
2021/01/08 12:22:40;;;;;;;15.68;13.38;;;2.80;91.10;;;;;;5060767;28;20042;-84
2021/01/08 12:25:07;;;;;;;16.20;14.20;;;2.80;91.20;;;;;;5075095;28;20039;-79
2021/01/08 12:27:32;;;;;;;18.10;13.85;;;2.80;91.30;;;;;;5074813;28;20082;-84
2021/01/08 12:29:58;;;;;;;17.38;13.10;;;2.80;91.50;;;;;;5083894;28;20032;-82
2021/01/08 12:32:24;;;;;;;17.55;13.07;;;2.90;91.70;;;;;;5081133;28;20123;-82
2021/01/08 12:34:50;;;;;;;12.65;9.80;;;3.10;90.90;;;;;;5082254;28;20044;-81
2021/01/08 12:37:15;;;;;;;14.15;11.00;;;3.20;90.30;;;;;;5081387;28;20460;-82
2021/01/08 12:39:43;;;;;;;17.45;14.10;;;3.30;90.00;;;;;;5088139;28;20472;-82